Time;durP1;ratioP1;P1;durP2;ratioP2;P2;SDS_P1;SDS_P2;PMS_P1;PMS_P2;Temp;Humidity;BMP_temperature;BMP_pressure;BME280_temperature;BME280_humidity;BME280_pressure;Samples;Min_cycle;Max_cycle;Signal;HPM_P1;HPM_P2
2022/12/19 00:01:15;;;;;;;;;;;;;;;9.51;54.89;100675.41;5051719;28;19917;-82
2022/12/19 00:03:51;;;;;;;;;;;;;;;9.49;54.95;100677.25;5052032;28;19998;-82
2022/12/19 00:06:17;;;;;;;;;;;;;;;9.50;54.66;100676.31;5052332;28;19932;-81
2022/12/19 00:08:46;;;;;;;;;;;;;;;9.48;54.73;100675.53;5051274;28;20008;-83
2022/12/19 00:11:11;;;;;;;;;;;;;;;9.48;54.72;100672.94;5051130;28;19924;-82
2022/12/19 00:13:37;;;;;;;;;;;;;;;9.47;55.11;100679.06;5034569;28;19917;-82
2022/12/19 00:16:06;;;;;;;;;;;;;;;9.48;55.01;100682.50;5034632;28;19924;-83
2022/12/19 00:18:31;;;;;;;;;;;;;;;9.47;54.91;100681.69;5052798;28;19923;-82
2022/12/19 00:21:00;;;;;;;;;;;;;;;9.47;54.97;100681.69;5051613;28;20011;-81
2022/12/19 00:23:26;;;;;;;;;;;;;;;9.47;55.01;100679.06;5034701;28;19917;-81
2022/12/19 00:25:51;;;;;;;;;;;;;;;9.46;55.25;100677.34;5051349;28;19940;-81
2022/12/19 00:28:17;;;;;;;;;;;;;;;9.46;55.31;100681.75;5034535;28;20368;-81
2022/12/19 00:30:42;;;;;;;;;;;;;;;9.45;55.05;100683.47;5034528;28;19917;-81
2022/12/19 00:33:07;;;;;;;;;;;;;;;9.43;55.20;100687.91;5052267;28;19924;-81
2022/12/19 00:35:33;;;;;;;;;;;;;;;9.44;55.11;100696.56;5052368;28;19920;-82
2022/12/19 00:37:58;;;;;;;;;;;;;;;9.43;55.10;100695.72;5050920;28;19947;-81
2022/12/19 00:40:23;;;;;;;;;;;;;;;9.43;55.01;100690.53;5050712;28;19917;-82
2022/12/19 00:42:48;;;;;;;;;;;;;;;9.41;55.20;100689.75;5051300;28;20307;-82
2022/12/19 00:45:14;;;;;;;;;;;;;;;9.41;55.03;100693.19;5034411;28;20400;-82
2022/12/19 00:47:39;;;;;;;;;;;;;;;9.41;55.06;100701.00;5051084;28;19917;-81
2022/12/19 00:50:04;;;;;;;;;;;;;;;9.43;54.85;100710.53;5050781;28;19924;-82
2022/12/19 00:52:30;;;;;;;;;;;;;;;9.44;54.90;100707.00;5052045;28;19921;-81
2022/12/19 00:54:55;;;;;;;;;;;;;;;9.43;54.95;100710.53;5056062;28;19925;-82
2022/12/19 00:57:20;;;;;;;;;;;;;;;9.42;54.88;100701.84;5055619;28;19917;-82
2022/12/19 00:59:46;;;;;;;;;;;;;;;9.40;54.86;100709.72;5037949;28;19920;-82
2022/12/19 01:02:11;;;;;;;;;;;;;;;9.40;54.95;100714.09;5055721;28;20300;-82
2022/12/19 01:04:36;;;;;;;;;;;;;;;9.40;54.63;100714.09;5054968;28;19952;-82
2022/12/19 01:07:04;;;;;;;;;;;;;;;9.39;54.77;100712.38;5054046;28;19967;-82
2022/12/19 01:09:30;;;;;;;;;;;;;;;9.38;54.73;100708.94;5054278;28;20004;-82
2022/12/19 01:14:39;;;;;;;;;;;;;;;9.35;54.18;100698.63;5054985;28;20428;-82
2022/12/19 01:17:04;;;;;;;;;;;;;;;9.32;53.91;100709.19;5054428;28;19921;-81
2022/12/19 01:19:29;;;;;;;;;;;;;;;9.31;53.71;100694.44;5055277;28;19947;-81
2022/12/19 01:21:55;;;;;;;;;;;;;;;9.29;53.29;100687.63;5037774;28;19917;-81
2022/12/19 01:24:20;;;;;;;;;;;;;;;9.27;53.03;100689.44;5053972;28;20379;-81
2022/12/19 01:26:45;;;;;;;;;;;;;;;9.26;52.83;100690.34;5054706;28;20279;-81
2022/12/19 01:29:11;;;;;;;;;;;;;;;9.23;52.82;100680.88;5054367;28;19924;-81
2022/12/19 01:31:36;;;;;;;;;;;;;;;9.21;52.45;100683.53;5055413;28;19921;-81
2022/12/19 01:34:01;;;;;;;;;;;;;;;9.20;52.13;100687.06;5053891;28;20015;-81
2022/12/19 01:36:27;;;;;;;;;;;;;;;9.18;52.25;100691.47;5053235;28;20338;-81
2022/12/19 01:38:58;;;;;;;;;;;;;;;9.18;52.11;100688.03;5053561;28;19923;-82
2022/12/19 01:41:23;;;;;;;;;;;;;;;9.17;51.88;100696.75;5036960;28;19971;-81
2022/12/19 01:43:55;;;;;;;;;;;;;;;9.14;52.12;100687.31;5053624;28;19917;-81
2022/12/19 01:46:28;;;;;;;;;;;;;;;9.14;52.02;100683.84;5054814;28;19917;-80
2022/12/19 01:48:53;;;;;;;;;;;;;;;9.12;52.00;100686.50;5053667;28;19917;-80
2022/12/19 01:51:20;;;;;;;;;;;;;;;9.11;51.50;100690.03;5036675;28;19928;-80
2022/12/19 01:53:46;;;;;;;;;;;;;;;9.11;51.66;100691.78;5036757;28;19991;-81
2022/12/19 01:56:11;;;;;;;;;;;;;;;9.09;51.58;100694.44;5036392;28;19921;-81
2022/12/19 01:58:37;;;;;;;;;;;;;;;9.10;51.26;100696.16;5054368;28;20013;-81
2022/12/19 02:01:02;;;;;;;;;;;;;;;9.09;51.29;100699.66;5053922;28;19960;-81
2022/12/19 02:03:27;;;;;;;;;;;;;;;9.08;51.54;100697.97;5053634;28;20352;-81
2022/12/19 02:05:53;;;;;;;;;;;;;;;9.09;51.29;100701.41;5053979;28;19923;-82
2022/12/19 02:08:18;;;;;;;;;;;;;;;9.08;51.15;100707.53;5036600;28;19917;-82
2022/12/19 02:10:43;;;;;;;;;;;;;;;9.07;51.02;100701.47;5052963;28;20003;-82
2022/12/19 02:13:09;;;;;;;;;;;;;;;9.06;51.16;100702.38;5052923;28;19917;-82
2022/12/19 02:15:38;;;;;;;;;;;;;;;9.05;50.91;100708.50;5036622;28;19916;-82
2022/12/19 02:18:36;;;;;;;;;;;;;;;9.04;50.82;100719.81;5053967;28;19928;-82
2022/12/19 02:21:20;;;;;;;;;;;;;;;9.02;50.65;100719.88;4992737;28;19922;-82
2022/12/19 02:24:04;;;;;;;;;;;;;;;9.00;50.42;100715.66;4993104;28;19918;-82
2022/12/19 02:26:29;;;;;;;;;;;;;;;8.98;50.44;100717.44;4992522;28;19956;-82
2022/12/19 02:28:57;;;;;;;;;;;;;;;8.96;50.42;100720.13;4992772;28;19953;-81
2022/12/19 02:31:29;;;;;;;;;;;;;;;8.96;50.36;100721.88;4992761;28;19918;-81
2022/12/19 02:33:55;;;;;;;;;;;;;;;8.96;50.16;100714.06;4959946;28;19925;-82
2022/12/19 02:36:21;;;;;;;;;;;;;;;8.94;50.20;100723.72;4992027;28;19922;-82
2022/12/19 02:38:57;;;;;;;;;;;;;;;8.96;50.54;100724.50;4976641;28;20392;-82
2022/12/19 02:41:26;;;;;;;;;;;;;;;8.92;50.37;100721.16;4976254;28;19918;-82
2022/12/19 02:43:54;;;;;;;;;;;;;;;8.90;49.65;100727.31;4975705;28;19961;-82
2022/12/19 02:46:19;;;;;;;;;;;;;;;8.86;49.73;100732.66;4975862;28;19925;-81
2022/12/19 02:48:45;;;;;;;;;;;;;;;8.85;49.61;100725.72;4976563;28;20301;-81
2022/12/19 02:51:10;;;;;;;;;;;;;;;8.83;49.46;100722.34;4959353;28;19918;-82
2022/12/19 02:53:35;;;;;;;;;;;;;;;8.83;49.56;100729.31;4992218;28;20317;-81
2022/12/19 02:56:06;;;;;;;;;;;;;;;8.83;49.61;100727.53;5007700;28;20011;-82
2022/12/19 02:58:41;;;;;;;;;;;;;;;8.80;49.58;100740.69;5053579;28;19924;-81
2022/12/19 03:01:10;;;;;;;;;;;;;;;8.79;49.66;100732.91;5052185;28;20016;-81
2022/12/19 03:03:35;;;;;;;;;;;;;;;8.77;49.23;100737.34;5052255;28;19956;-81
2022/12/19 03:06:12;;;;;;;;;;;;;;;8.76;49.51;100741.72;5052616;28;20403;-81
2022/12/19 03:08:57;;;;;;;;;;;;;;;8.75;49.45;100739.16;5052220;28;20007;-81
2022/12/19 03:11:22;;;;;;;;;;;;;;;8.74;48.96;100740.06;5053878;28;19939;-81
2022/12/19 03:13:55;;;;;;;;;;;;;;;8.73;49.36;100738.34;5051892;28;20291;-82
2022/12/19 03:16:20;;;;;;;;;;;;;;;8.72;48.96;100740.13;5051035;28;19921;-82
2022/12/19 03:18:46;;;;;;;;;;;;;;;8.71;49.00;100730.59;5052430;28;19950;-82
2022/12/19 03:21:11;;;;;;;;;;;;;;;8.71;49.21;100742.78;5051916;28;19916;-80
2022/12/19 03:23:36;;;;;;;;;;;;;;;8.71;49.15;100745.38;5053342;28;20295;-81
2022/12/19 03:26:03;;;;;;;;;;;;;;;8.71;48.96;100745.38;5035431;28;19921;-81
2022/12/19 03:28:29;;;;;;;;;;;;;;;8.67;48.89;100742.88;5052261;28;20371;-82
2022/12/19 03:30:55;;;;;;;;;;;;;;;8.66;49.08;100751.59;5052111;28;20352;-81
2022/12/19 03:33:20;;;;;;;;;;;;;;;8.66;48.91;100743.78;5051963;28;19916;-81
2022/12/19 03:35:45;;;;;;;;;;;;;;;8.65;49.09;100755.13;5051610;28;19924;-82
2022/12/19 03:38:11;;;;;;;;;;;;;;;8.65;49.03;100757.72;5052528;28;19956;-82
2022/12/19 03:40:36;;;;;;;;;;;;;;;8.64;49.14;100761.22;5034625;28;20039;-82
2022/12/19 03:43:09;;;;;;;;;;;;;;;8.67;49.13;100760.28;5051368;28;20407;-81
2022/12/19 03:45:50;;;;;;;;;;;;;;;8.67;48.94;100770.69;5051733;28;19917;-80
2022/12/19 03:48:25;;;;;;;;;;;;;;;8.66;49.10;100768.97;5053111;28;19944;-81
2022/12/19 03:50:50;;;;;;;;;;;;;;;8.65;49.08;100772.47;5052470;28;20284;-82
2022/12/19 03:53:23;;;;;;;;;;;;;;;8.66;49.23;100766.38;5053195;28;19924;-82
2022/12/19 03:55:52;;;;;;;;;;;;;;;8.66;49.23;100771.59;5052208;28;20012;-82
2022/12/19 03:58:25;;;;;;;;;;;;;;;8.67;49.26;100770.69;5051763;28;19916;-82
2022/12/19 04:00:50;;;;;;;;;;;;;;;8.67;48.97;100776.72;5051711;28;19940;-81
2022/12/19 04:03:16;;;;;;;;;;;;;;;8.67;49.00;100779.34;5052346;28;20375;-83
2022/12/19 04:05:41;;;;;;;;;;;;;;;8.68;49.12;100783.66;5051313;28;19921;-82
2022/12/19 04:08:06;;;;;;;;;;;;;;;8.67;48.71;100787.16;5034975;28;19924;-82
2022/12/19 04:10:33;;;;;;;;;;;;;;;8.67;48.80;100781.94;5052470;28;19920;-82
2022/12/19 04:13:00;;;;;;;;;;;;;;;8.66;48.99;100785.44;5051540;28;19963;-82
2022/12/19 04:15:40;;;;;;;;;;;;;;;8.66;49.21;100787.19;5035370;28;19932;-82
2022/12/19 04:18:05;;;;;;;;;;;;;;;8.66;48.58;100788.03;5035282;28;19916;-82
2022/12/19 04:20:30;;;;;;;;;;;;;;;8.65;48.56;100783.75;5052227;28;20375;-82
2022/12/19 04:23:02;;;;;;;;;;;;;;;8.65;48.88;100788.09;5051416;28;19921;-81
2022/12/19 04:25:34;;;;;;;;;;;;;;;8.64;48.93;100781.22;5051678;28;19923;-82
2022/12/19 04:28:02;;;;;;;;;;;;;;;8.64;48.77;100791.63;5053558;28;19923;-82
2022/12/19 04:30:27;;;;;;;;;;;;;;;8.63;49.12;100787.31;5055615;28;20003;-82
2022/12/19 04:32:52;;;;;;;;;;;;;;;8.62;48.84;100788.22;5056677;28;19960;-82
2022/12/19 04:35:18;;;;;;;;;;;;;;;8.61;48.60;100786.53;5054063;28;20003;-82
2022/12/19 04:37:43;;;;;;;;;;;;;;;8.61;48.85;100796.94;5037028;28;20023;-82
2022/12/19 04:40:09;;;;;;;;;;;;;;;8.61;48.91;100800.38;5053296;28;19923;-80
2022/12/19 04:42:34;;;;;;;;;;;;;;;8.60;48.39;100806.50;5054708;28;19979;-83
2022/12/19 04:44:59;;;;;;;;;;;;;;;8.59;48.61;100809.16;5054895;28;19971;-80
2022/12/19 04:47:25;;;;;;;;;;;;;;;9.17;72.66;100808.78;5056428;28;20310;-83
2022/12/19 04:49:50;;;;;;;;;;;;;;;9.17;66.05;100819.22;5055114;28;19916;-80
2022/12/19 04:52:15;;;;;;;;;;;;;;;9.13;62.34;100813.28;5054450;28;19982;-76
2022/12/19 04:54:41;;;;;;;;;;;;;;;9.10;61.01;100810.78;5055799;28;19920;-83
2022/12/19 04:57:06;;;;;;;;;;;;;;;9.08;59.89;100816.94;5038004;28;19924;-84
2022/12/19 04:59:31;;;;;;;;;;;;;;;9.05;59.14;100817.94;5055892;28;20063;-83
2022/12/19 05:01:57;;;;;;;;;;;;;;;9.24;69.10;100825.91;5056277;28;19917;-81
2022/12/19 05:04:22;;;;;;;;;;;;;;;9.37;70.44;100832.34;5037647;28;20414;-77
2022/12/19 05:06:47;;;;;;;;;;;;;;;9.35;64.67;100834.19;5055496;28;19924;-84
2022/12/19 05:09:12;;;;;;;;;;;;;;;9.28;62.70;100837.06;5054869;28;19916;-81
2022/12/19 05:11:38;;;;;;;;;;;;;;;9.23;62.13;100842.44;5054810;28;19924;-81
2022/12/19 05:14:03;;;;;;;;;;;;;;;9.16;61.00;100847.03;5054153;28;19917;-82
2022/12/19 05:16:29;;;;;;;;;;;;;;;9.10;60.18;100843.81;5054720;28;19975;-81
2022/12/19 05:18:54;;;;;;;;;;;;;;;9.05;59.50;100859.63;5036994;28;20221;-81
2022/12/19 05:21:20;;;;;;;;;;;;;;;8.99;58.83;100855.47;5055535;28;19917;-82
2022/12/19 05:23:45;;;;;;;;;;;;;;;8.94;58.47;100853.94;5053915;28;19917;-81
2022/12/19 05:26:10;;;;;;;;;;;;;;;8.89;57.78;100851.50;5055667;28;19959;-81
2022/12/19 05:28:36;;;;;;;;;;;;;;;8.84;57.61;100856.88;5053924;28;19921;-82
2022/12/19 05:31:13;;;;;;;;;;;;;;;8.83;56.91;100857.75;5055307;28;19946;-82
2022/12/19 05:33:38;;;;;;;;;;;;;;;8.80;56.48;100854.44;5036721;28;19916;-81
2022/12/19 05:36:04;;;;;;;;;;;;;;;8.76;56.03;100858.91;5053220;28;19921;-82
2022/12/19 05:38:29;;;;;;;;;;;;;;;8.74;55.16;100865.06;5053314;28;19999;-81
2022/12/19 05:40:55;;;;;;;;;;;;;;;8.72;54.84;100859.06;5053150;28;19916;-80
2022/12/19 05:43:20;;;;;;;;;;;;;;;8.69;54.69;100862.59;5052983;28;20030;-81
2022/12/19 05:45:45;;;;;;;;;;;;;;;8.66;54.21;100866.16;5053484;28;20391;-81
2022/12/19 05:48:11;;;;;;;;;;;;;;;8.62;54.04;100863.75;5054777;28;19974;-81
2022/12/19 05:50:36;;;;;;;;;;;;;;;8.61;53.77;100867.22;5053460;28;19936;-81
2022/12/19 05:53:01;;;;;;;;;;;;;;;8.58;53.24;100873.38;5036733;28;20008;-81
2022/12/19 05:55:26;;;;;;;;;;;;;;;8.56;53.28;100869.16;5053203;28;19927;-81
2022/12/19 05:57:52;;;;;;;;;;;;;;;8.54;52.79;100866.59;5053085;28;19923;-81
2022/12/19 06:00:17;;;;;;;;;;;;;;;8.52;52.76;100865.78;5053034;28;19921;-80
2022/12/19 06:02:42;;;;;;;;;;;;;;;8.52;52.65;100870.97;5053360;28;20372;-81
2022/12/19 06:05:08;;;;;;;;;;;;;;;8.51;52.26;100866.69;5054252;28;19917;-80
2022/12/19 06:07:33;;;;;;;;;;;;;;;8.51;51.83;100882.31;5053698;28;19917;-82
2022/12/19 06:09:58;;;;;;;;;;;;;;;8.50;51.51;100893.63;5052780;28;19916;-83
2022/12/19 06:12:24;;;;;;;;;;;;;;;8.49;51.33;100891.91;5053300;28;19917;-82
2022/12/19 06:14:49;;;;;;;;;;;;;;;8.49;51.15;100897.97;5052908;28;19916;-81
2022/12/19 06:17:14;;;;;;;;;;;;;;;8.49;51.02;100905.78;5053151;28;19933;-83
2022/12/19 06:19:40;;;;;;;;;;;;;;;8.51;50.49;100906.59;5035010;28;20019;-82
2022/12/19 06:22:05;;;;;;;;;;;;;;;8.51;50.61;100900.53;5054139;28;19994;-82
2022/12/19 06:24:30;;;;;;;;;;;;;;;8.53;50.21;100903.09;5052546;28;20054;-82
2022/12/19 06:26:56;;;;;;;;;;;;;;;8.53;50.08;100903.94;5052620;28;20311;-82
2022/12/19 06:29:21;;;;;;;;;;;;;;;8.54;50.11;100903.03;5035682;28;19916;-82
2022/12/19 06:31:46;;;;;;;;;;;;;;;8.56;49.85;100911.63;5052780;28;19917;-83
2022/12/19 06:34:11;;;;;;;;;;;;;;;8.59;49.95;100914.16;5034544;28;19925;-83
2022/12/19 06:36:37;;;;;;;;;;;;;;;8.60;49.61;100914.97;5035673;28;19975;-82
2022/12/19 06:39:03;;;;;;;;;;;;;;;8.62;49.46;100927.06;5054117;28;19928;-84
2022/12/19 06:44:13;;;;;;;;;;;;;;;8.66;49.14;100933.00;5052878;28;19927;-83
2022/12/19 06:46:39;;;;;;;;;;;;;;;8.68;49.12;100939.88;5036199;28;19917;-84
2022/12/19 06:49:05;;;;;;;;;;;;;;;8.72;49.05;100934.56;5052672;28;19912;-84
2022/12/19 06:51:30;;;;;;;;;;;;;;;8.75;48.87;100945.72;5036227;28;20021;-82
2022/12/19 06:53:55;;;;;;;;;;;;;;;8.79;48.58;100944.72;5053881;28;20538;-85
2022/12/19 06:56:21;;;;;;;;;;;;;;;8.90;53.54;100946.09;5043607;28;19923;-86
2022/12/19 06:58:46;;;;;;;;;;;;;;;9.03;53.56;100950.00;5057432;28;19947;-84
2022/12/19 07:01:18;;;;;;;;;;;;;;;9.04;53.02;100949.97;5036032;28;19973;-86
2022/12/19 07:03:43;;;;;;;;;;;;;;;9.04;51.92;100954.31;5052351;28;19928;-83
2022/12/19 07:06:09;;;;;;;;;;;;;;;9.04;51.40;100954.31;5052281;28;19917;-85
2022/12/19 07:08:35;;;;;;;;;;;;;;;9.02;50.77;100963.94;5053680;28;20032;-85
2022/12/19 07:11:00;;;;;;;;;;;;;;;9.14;61.18;100965.25;5051973;28;20019;-81
2022/12/19 07:13:26;;;;;;;;;;;;;;;9.20;56.46;100965.91;5053498;28;19920;-85
2022/12/19 07:15:53;;;;;;;;;;;;;;;9.26;55.09;100969.19;5054651;28;20007;-90
2022/12/19 07:18:20;;;;;;;;;;;;;;;9.29;54.33;100975.16;5054205;28;19985;-87
2022/12/19 07:20:45;;;;;;;;;;;;;;;9.34;53.53;100969.78;5039326;28;19917;-86
2022/12/19 07:23:12;;;;;;;;;;;;;;;9.37;52.99;100975.72;5056471;28;19917;-88
2022/12/19 07:25:38;;;;;;;;;;;;;;;9.43;52.27;100977.28;5037962;28;19927;-87
2022/12/19 07:28:03;;;;;;;;;;;;;;;9.45;51.61;100970.22;5038444;28;20410;-85
2022/12/19 07:30:28;;;;;;;;;;;;;;;9.50;51.27;100976.13;5036701;28;19917;-79
2022/12/19 07:32:54;;;;;;;;;;;;;;;9.53;51.00;100975.19;5051605;28;19917;-81
2022/12/19 07:35:21;;;;;;;;;;;;;;;9.57;50.64;100982.00;5054893;28;20458;-87
2022/12/19 07:37:48;;;;;;;;;;;;;;;9.61;50.08;100983.56;5053988;28;19928;-78
2022/12/19 07:40:13;;;;;;;;;;;;;;;9.65;49.65;100981.72;5051445;28;19917;-83
2022/12/19 07:42:39;;;;;;;;;;;;;;;9.69;49.59;100986.75;5035283;28;19921;-87
2022/12/19 07:45:04;;;;;;;;;;;;;;;9.73;49.09;100983.13;5052505;28;19917;-83
2022/12/19 07:47:30;;;;;;;;;;;;;;;9.78;48.53;100989.00;5035597;28;19917;-80
2022/12/19 07:49:55;;;;;;;;;;;;;;;9.81;48.44;100990.66;5052011;28;19916;-82
2022/12/19 07:52:20;;;;;;;;;;;;;;;9.84;48.18;100993.16;5051004;28;19993;-83
2022/12/19 07:54:46;;;;;;;;;;;;;;;9.88;48.00;101005.19;5050034;28;19925;-83
2022/12/19 07:57:11;;;;;;;;;;;;;;;9.90;47.52;101005.97;5033638;28;19928;-82
2022/12/19 07:59:37;;;;;;;;;;;;;;;9.95;47.09;100998.00;5033726;28;19925;-80
2022/12/19 08:02:02;;;;;;;;;;;;;;;9.98;47.10;101010.91;5051795;28;20468;-81
2022/12/19 08:04:27;;;;;;;;;;;;;;;10.01;46.79;101005.59;5054264;28;19917;-81
2022/12/19 08:06:53;;;;;;;;;;;;;;;10.05;46.37;101006.31;5054659;28;19917;-83
2022/12/19 08:09:18;;;;;;;;;;;;;;;10.09;46.30;101019.19;5038669;28;20024;-83
2022/12/19 08:11:43;;;;;;;;;;;;;;;10.13;46.15;101018.16;5055889;28;19923;-81
2022/12/19 08:14:09;;;;;;;;;;;;;;;10.19;45.56;101026.69;5055114;28;20380;-81
2022/12/19 08:16:35;;;;;;;;;;;;;;;10.23;45.49;101028.25;5056527;28;19917;-82
2022/12/19 08:19:00;;;;;;;;;;;;;;;10.25;45.31;101040.34;5039217;28;20295;-83
2022/12/19 08:21:26;;;;;;;;;;;;;;;10.30;44.82;101033.16;5056818;28;19921;-81
2022/12/19 08:23:51;;;;;;;;;;;;;;;10.36;44.37;101042.56;5056570;28;19924;-81
2022/12/19 08:26:23;;;;;;;;;;;;;;;10.37;43.05;101040.81;5055344;28;19920;-84
2022/12/19 08:28:49;;;;;;;;;;;;;;;10.39;42.01;101041.59;5055492;28;19920;-82
2022/12/19 08:31:14;;;;;;;;;;;;;;;10.41;41.19;101040.63;5055195;28;19916;-82
2022/12/19 08:33:40;;;;;;;;;;;;;;;10.45;40.39;101047.44;5038140;28;19967;-82
2022/12/19 08:36:06;;;;;;;;;;;;;;;10.43;40.51;101037.97;5054690;28;20348;-82
2022/12/19 08:38:31;;;;;;;;;;;;;;;10.48;40.38;101043.84;5055311;28;20015;-82
2022/12/19 08:40:59;;;;;;;;;;;;;;;10.50;40.46;101045.50;5055613;28;19967;-82
2022/12/19 08:43:26;;;;;;;;;;;;;;;10.52;40.01;101036.75;5055400;28;19917;-81
2022/12/19 08:45:52;;;;;;;;;;;;;;;10.57;39.94;101048.72;5038137;28;20011;-80
2022/12/19 08:48:17;;;;;;;;;;;;;;;10.63;39.77;101037.19;5037542;28;20015;-79
2022/12/19 08:50:55;;;;;;;;;;;;;;;10.70;39.79;101051.69;5037985;28;20302;-80
2022/12/19 08:53:21;;;;;;;;;;;;;;;10.77;39.53;101039.22;5054571;28;19955;-81
2022/12/19 08:55:47;;;;;;;;;;;;;;;10.80;39.49;101032.13;5037956;28;19921;-82
2022/12/19 08:58:13;;;;;;;;;;;;;;;10.88;39.52;101031.81;5054778;28;19924;-81
2022/12/19 09:00:38;;;;;;;;;;;;;;;10.91;39.20;101029.09;5037684;28;20007;-81
2022/12/19 09:03:04;;;;;;;;;;;;;;;10.97;39.06;101035.81;5037840;28;19917;-81
2022/12/19 09:05:30;;;;;;;;;;;;;;;10.98;39.27;101042.75;5038110;28;19937;-81
2022/12/19 09:07:55;;;;;;;;;;;;;;;11.02;38.85;101036.47;5055734;28;20558;-81
2022/12/19 09:10:20;;;;;;;;;;;;;;;11.09;38.91;101031.84;5037912;28;19924;-82
2022/12/19 09:12:46;;;;;;;;;;;;;;;11.16;39.07;101036.72;5054833;28;20054;-81
2022/12/19 09:15:11;;;;;;;;;;;;;;;11.20;38.31;101038.31;5054454;28;20003;-82
2022/12/19 09:17:36;;;;;;;;;;;;;;;11.28;38.58;101027.53;5037881;28;20003;-81
2022/12/19 09:20:02;;;;;;;;;;;;;;;11.34;38.26;101024.66;5054465;28;19917;-83
2022/12/19 09:22:27;;;;;;;;;;;;;;;11.48;38.18;101025.81;5054224;28;19936;-84
2022/12/19 09:24:52;;;;;;;;;;;;;;;11.62;37.97;101027.84;5037723;28;20360;-83
2022/12/19 09:27:18;;;;;;;;;;;;;;;11.69;37.85;101021.44;5056146;28;19923;-83
2022/12/19 09:29:44;;;;;;;;;;;;;;;11.75;38.18;101023.78;5054590;28;20012;-82
2022/12/19 09:32:10;;;;;;;;;;;;;;;11.83;37.24;101019.03;5055451;28;19960;-82
2022/12/19 09:34:35;;;;;;;;;;;;;;;11.92;37.07;101023.03;5053787;28;19955;-81
2022/12/19 09:37:01;;;;;;;;;;;;;;;11.99;37.04;101021.84;5053741;28;19927;-82
2022/12/19 09:39:26;;;;;;;;;;;;;;;12.09;37.06;101023.09;5053001;28;20399;-82
2022/12/19 09:42:03;;;;;;;;;;;;;;;12.30;36.45;101026.50;5037347;28;19970;-80
2022/12/19 09:44:39;;;;;;;;;;;;;;;12.42;36.08;101017.19;5053946;28;20020;-81
2022/12/19 09:47:12;;;;;;;;;;;;;;;12.67;35.78;101014.25;5037115;28;19924;-82
2022/12/19 09:49:39;;;;;;;;;;;;;;;12.82;35.30;101006.56;5053805;28;19921;-82
2022/12/19 09:52:06;;;;;;;;;;;;;;;12.78;35.49;101005.88;5055251;28;19921;-81
2022/12/19 09:54:38;;;;;;;;;;;;;;;12.84;34.97;100999.50;5037020;28;19927;-82
2022/12/19 09:57:04;;;;;;;;;;;;;;;13.07;34.73;100997.47;5053534;28;19917;-81
2022/12/19 09:59:33;;;;;;;;;;;;;;;14.70;32.30;100990.53;5036453;28;19939;-81
2022/12/19 10:02:11;;;;;;;;;;;;;;;14.05;32.63;100991.50;5036830;28;20438;-82
2022/12/19 10:04:36;;;;;;;;;;;;;;;13.82;32.78;101004.09;5054444;28;19917;-81
2022/12/19 10:07:02;;;;;;;;;;;;;;;13.67;32.88;100991.78;5053612;28;19920;-80
2022/12/19 10:09:29;;;;;;;;;;;;;;;13.63;32.51;100985.00;5036867;28;19965;-80
2022/12/19 10:12:13;;;;;;;;;;;;;;;13.72;32.23;100987.13;5036064;28;19932;-81
2022/12/19 10:14:57;;;;;;;;;;;;;;;14.36;31.06;100977.50;5054534;28;19920;-82
2022/12/19 10:17:41;;;;;;;;;;;;;;;14.69;30.38;100978.31;5054698;28;19963;-81
2022/12/19 10:20:25;;;;;;;;;;;;;;;15.91;29.05;100974.53;5054271;28;19921;-83
2022/12/19 10:23:13;;;;;;;;;;;;;;;17.72;26.22;100969.47;5054469;28;19917;-83
2022/12/19 10:26:17;;;;;;;;;;;;;;;18.52;24.84;100973.47;5012459;28;19940;-81
2022/12/19 10:28:45;;;;;;;;;;;;;;;18.74;24.34;100971.88;4954352;28;19918;-83
2022/12/19 10:31:10;;;;;;;;;;;;;;;18.86;23.87;100970.13;4953935;28;19919;-81
2022/12/19 10:33:40;;;;;;;;;;;;;;;19.00;23.88;100967.28;4953958;29;19946;-82
2022/12/19 10:36:08;;;;;;;;;;;;;;;19.17;23.91;100969.47;4938116;29;19922;-83
2022/12/19 10:38:34;;;;;;;;;;;;;;;19.20;23.74;100951.66;4955881;29;19958;-84
2022/12/19 10:41:10;;;;;;;;;;;;;;;19.32;23.49;100958.66;4954874;28;19933;-85
2022/12/19 10:43:42;;;;;;;;;;;;;;;19.30;23.30;100950.84;4954611;29;19950;-84
2022/12/19 10:46:13;;;;;;;;;;;;;;;19.47;23.52;100948.69;4954739;28;19962;-82
2022/12/19 10:48:39;;;;;;;;;;;;;;;19.51;23.08;100953.63;4954581;29;20058;-83
2022/12/19 10:51:04;;;;;;;;;;;;;;;19.18;22.80;100933.25;4938320;29;20039;-85
2022/12/19 10:53:31;;;;;;;;;;;;;;;19.13;23.42;100935.41;4954475;29;19997;-83
2022/12/19 10:56:01;;;;;;;;;;;;;;;19.11;22.95;100932.06;4954288;29;19961;-84
2022/12/19 10:58:26;;;;;;;;;;;;;;;18.78;23.12;100938.94;4958951;28;19918;-82
2022/12/19 11:01:00;;;;;;;;;;;;;;;18.67;23.03;100933.63;5011861;28;20380;-82
2022/12/19 11:03:26;;;;;;;;;;;;;;;18.49;23.14;100936.69;5047033;28;19955;-82
2022/12/19 11:05:54;;;;;;;;;;;;;;;18.26;23.36;100933.97;5035827;28;19920;-83
2022/12/19 11:08:23;;;;;;;;;;;;;;;18.27;23.78;100932.16;5035866;28;19967;-83
2022/12/19 11:10:49;;;;;;;;;;;;;;;18.26;23.64;100936.59;5052049;28;19917;-82
2022/12/19 11:13:34;;;;;;;;;;;;;;;18.10;23.78;100943.94;5052228;28;20333;-80
2022/12/19 11:16:00;;;;;;;;;;;;;;;18.01;24.08;100926.13;5046785;28;19916;-83
2022/12/19 11:18:41;;;;;;;;;;;;;;;17.90;24.25;100929.56;5036049;28;19917;-80
2022/12/19 11:21:25;;;;;;;;;;;;;;;17.73;24.42;100933.38;5054282;28;19927;-83
2022/12/19 11:23:55;;;;;;;;;;;;;;;17.56;24.64;100936.38;5052032;28;19923;-82
2022/12/19 11:26:34;;;;;;;;;;;;;;;17.61;24.73;100934.25;5052416;28;19917;-81
2022/12/19 11:29:01;;;;;;;;;;;;;;;17.44;24.92;100932.78;5051889;28;19923;-83
2022/12/19 11:31:27;;;;;;;;;;;;;;;17.42;24.99;100935.53;5052878;28;20015;-82
2022/12/19 11:33:53;;;;;;;;;;;;;;;17.30;24.92;100937.25;5053033;28;20451;-82
2022/12/19 11:36:27;;;;;;;;;;;;;;;17.22;24.85;100938.72;5051120;28;19925;-82
2022/12/19 11:38:53;;;;;;;;;;;;;;;17.06;25.16;100931.00;5034679;28;20299;-83
2022/12/19 11:41:19;;;;;;;;;;;;;;;16.89;25.31;100932.16;5051657;28;19917;-82
2022/12/19 11:43:50;;;;;;;;;;;;;;;16.86;25.43;100943.78;5034637;28;19917;-83
2022/12/19 11:46:22;;;;;;;;;;;;;;;16.74;25.33;100929.56;5051514;28;19951;-83
2022/12/19 11:49:01;;;;;;;;;;;;;;;16.59;25.40;100920.91;5051684;28;19928;-83
2022/12/19 11:51:43;;;;;;;;;;;;;;;16.62;25.41;100925.16;5051607;28;20363;-85
2022/12/19 11:54:30;;;;;;;;;;;;;;;16.55;25.85;100923.84;5051478;28;19924;-83
2022/12/19 11:56:55;;;;;;;;;;;;;;;16.41;25.63;100925.63;5051751;28;19917;-83
2022/12/19 11:59:26;;;;;;;;;;;;;;;16.06;26.24;100923.47;5052081;28;19990;-84
2022/12/19 12:01:54;;;;;;;;;;;;;;;15.81;26.62;100924.19;5034738;28;19916;-82
2022/12/19 12:04:20;;;;;;;;;;;;;;;15.53;27.10;100928.53;5052980;28;19980;-82
2022/12/19 12:06:47;;;;;;;;;;;;;;;15.35;27.52;100920.00;5051380;28;19926;-82
2022/12/19 12:09:16;;;;;;;;;;;;;;;15.15;27.87;100929.09;5034622;28;19924;-80
2022/12/19 12:11:43;;;;;;;;;;;;;;;14.93;28.04;100918.19;5035530;28;19924;-82
2022/12/19 12:14:08;;;;;;;;;;;;;;;14.68;28.45;100922.25;5051484;28;19917;-82
2022/12/19 12:16:36;;;;;;;;;;;;;;;14.43;28.92;100925.44;5051274;28;20306;-83
2022/12/19 12:19:11;;;;;;;;;;;;;;;14.23;28.99;100932.69;5052698;28;20407;-83
2022/12/19 12:21:38;;;;;;;;;;;;;;;13.98;29.71;100916.59;5051225;28;19923;-83
2022/12/19 12:24:06;;;;;;;;;;;;;;;13.77;30.06;100923.88;5051570;28;20008;-82
2022/12/19 12:26:32;;;;;;;;;;;;;;;13.57;30.39;100924.03;5052139;28;20384;-81
2022/12/19 12:29:03;;;;;;;;;;;;;;;13.36;31.00;100931.28;5034284;28;20413;-83
2022/12/19 12:31:38;;;;;;;;;;;;;;;13.19;31.11;100931.31;5031268;28;19917;-81
2022/12/19 12:34:18;;;;;;;;;;;;;;;12.98;31.64;100934.09;5032674;28;20012;-82
2022/12/19 12:37:02;;;;;;;;;;;;;;;12.77;32.04;100930.78;5032201;28;20387;-80
2022/12/19 12:39:28;;;;;;;;;;;;;;;12.62;31.94;100940.28;5031363;28;19917;-82
2022/12/19 12:42:03;;;;;;;;;;;;;;;12.46;32.46;100931.44;5032430;28;19924;-82
2022/12/19 12:44:30;;;;;;;;;;;;;;;12.33;32.80;100931.22;5030931;28;20442;-82
2022/12/19 12:47:04;;;;;;;;;;;;;;;12.19;32.96;100936.28;5031687;28;20364;-82
2022/12/19 12:49:41;;;;;;;;;;;;;;;12.08;33.09;100936.78;5017449;28;19924;-82
2022/12/19 12:52:38;;;;;;;;;;;;;;;11.99;33.67;100942.47;5018374;28;19972;-81